River Addyson — WDH3750 — position and weather

sailwx.info

Track history (hours):
 
Tides and Currents Weather Stations Pressure Air Temp Water Temp Dewpoint Dewpoint Depression Visibility Wind Speed Wind Dir Waves Ship Positions

River Addyson

Owner: Western Rivers Boat Management, INC., Paducah, KY. More information available from US FCC via Universal Licensing System and Coast Guard Vessel Documentation Center.

Last reported at 2018-May-17 06:34 UTC. Time now 2018-May-24 14:05 UTC.
Position N 32°37' W 091°09'.

Length 61 m; draft 3 m.

Type: Towing. MMSI: 367610510.

Date/timePositionNaut miles runAvg speedWind from/ knotsBaromVisibWave heightAir tempDewpointWater temp
2018-May-17 06:34N 32°37' W 091°09'0 5.0
2018-May-17 06:30N 32°37' W 091°09'2 4.2
2018-May-17 06:00N 32°35' W 091°08'2 5.0
2018-May-17 05:31N 32°33' W 091°06'3 4.9
2018-May-17 05:00N 32°31' W 091°07'3 5.3
2018-May-17 04:30N 32°28' W 091°06'3 5.2
2018-May-17 04:01N 32°27' W 091°04'3 5.2
2018-May-17 03:30N 32°26' W 091°01'2 4.6
2018-May-17 03:00N 32°24' W 090°60'2 5.0
2018-May-17 02:30N 32°21' W 090°60'3 5.2
2018-May-17 02:00N 32°21' W 090°57'2 4.9
2018-May-17 01:30N 32°20' W 090°54'2 3.9
2018-May-17 01:00N 32°18' W 090°55'0 0.4
2018-May-17 00:30N 32°18' W 090°55'0 0.1
2018-May-17 00:00N 32°18' W 090°56'0 0.0
2018-May-16 23:28N 32°18' W 090°56'0 0.0
2018-May-16 23:00N 32°18' W 090°56'0 0.0
2018-May-16 22:30N 32°18' W 090°56'0 0.0
2018-May-16 22:00N 32°18' W 090°56'0 0.0
2018-May-16 21:30N 32°18' W 090°56'0 0.0
2018-May-16 21:00N 32°18' W 090°56'0 0.0
2018-May-16 20:31N 32°18' W 090°56'1 2.8
2018-May-16 20:01N 32°17' W 090°57'2 4.6
2018-May-16 19:30N 32°15' W 090°58'3 5.3
2018-May-16 19:00N 32°13' W 090°59'2 4.9
2018-May-16 18:30N 32°10' W 090°60'2 4.7
2018-May-16 18:00N 32°08' W 091°00'2 4.2
2018-May-16 17:30N 32°07' W 091°03'3 5.4
2018-May-16 16:57N 32°08' W 091°06'5 4.9
2018-May-16 16:00N 32°04' W 091°04'2 4.8
2018-May-16 15:30N 32°01' W 091°04'2 0.8
2018-May-16 13:06N 31°60' W 091°05'0 0.0
2018-May-16 13:00N 31°60' W 091°05'0 0.0
2018-May-16 12:29N 31°60' W 091°05'0 0.5
2018-May-16 12:00N 31°60' W 091°05'3 4.8
2018-May-16 11:28N 31°59' W 091°08'2 4.7
2018-May-16 10:59N 31°58' W 091°11'8 4.8
2018-May-16 09:19N 31°52' W 091°16'2 5.5
2018-May-16 09:00N 31°52' W 091°19'2 4.6
2018-May-16 08:31N 31°50' W 091°21'4 5.3
2018-May-16 07:45N 31°46' W 091°21'102 2.4
2018-May-14 13:06N 30°06' W 090°58'0 1.4
2018-May-14 13:00N 30°07' W 090°58'0 0.2
2018-May-14 12:12N 30°07' W 090°58'0 0.0
2018-May-14 12:01N 30°07' W 090°58'0 0.0
2018-May-14 11:24N 30°07' W 090°58'0 0.0
2018-May-14 11:00N 30°07' W 090°58'0 0.0
2018-May-14 10:27N 30°07' W 090°58'0 0.0
2018-May-14 10:00N 30°07' W 090°58'0 0.0
2018-May-14 09:00N 30°07' W 090°58'0 0.2
2018-May-14 08:08N 30°07' W 090°58'0 0.5
2018-May-14 08:00N 30°07' W 090°58'0 0.2
2018-May-14 07:29N 30°07' W 090°58'  
2018-May-10 03:05N 30°25' W 091°12'37 2.5
2018-May-09 12:40N 30°55' W 091°36'2 8.2
2018-May-09 12:23N 30°56' W 091°39'3 7.9
2018-May-09 12:00N 30°59' W 091°40'51 6.7
2018-May-09 04:21N 31°47' W 091°22'3 8.6
2018-May-09 04:01N 31°50' W 091°21'10 7.5
2018-May-09 02:43N 31°56' W 091°12'2 8.9
2018-May-09 02:29N 31°58' W 091°11'4 8.3
2018-May-09 01:59N 31°59' W 091°06'4 8.6
2018-May-09 01:30N 32°03' W 091°04'4 7.6
2018-May-09 01:00N 32°06' W 091°06'3 5.9
2018-May-09 00:30N 32°07' W 091°03'4 7.4
2018-May-09 00:01N 32°10' W 090°60'4 8.6
2018-May-08 23:30N 32°14' W 090°59'4 8.1
2018-May-08 23:00N 32°18' W 090°56'1 1.9
2018-May-08 22:30N 32°18' W 090°55'0 0.0
2018-May-08 22:00N 32°18' W 090°55'0 0.0
2018-May-08 21:30N 32°18' W 090°55'0 0.3
2018-May-08 21:00N 32°18' W 090°55'3 5.3
2018-May-08 20:30N 32°21' W 090°56'4 7.9
2018-May-08 20:00N 32°22' W 091°00'4 7.4
2018-May-08 19:30N 32°25' W 091°01'4 8.7
2018-May-08 19:00N 32°27' W 091°05'4 8.1
2018-May-08 18:30N 32°31' W 091°06'4 7.7
2018-May-08 17:59N 32°35' W 091°08'5 7.2
2018-May-08 17:22N 32°40' W 091°08'6 0.2
2018-May-07 16:21N 32°44' W 091°05'7 4.3
2018-May-07 14:39N 32°38' W 091°08'1 5.7
2018-May-07 14:30N 32°37' W 091°09'3 5.8
2018-May-07 14:00N 32°35' W 091°07'3 5.6
2018-May-07 13:30N 32°32' W 091°07'3 5.5
2018-May-07 13:00N 32°29' W 091°07'3 5.4
2018-May-07 12:30N 32°27' W 091°04'3 6.1
2018-May-07 12:00N 32°26' W 091°01'3 5.2
2018-May-07 11:30N 32°24' W 090°60'2 4.6
2018-May-07 11:00N 32°21' W 090°59'3 5.4
2018-May-07 10:31N 32°20' W 090°57'2 4.4
2018-May-07 10:00N 32°19' W 090°54'3 5.4
2018-May-07 09:30N 32°17' W 090°57'2 5.0
2018-May-07 09:00N 32°15' W 090°58'3 5.8
2018-May-07 08:30N 32°12' W 090°59'2 4.6
2018-May-07 08:00N 32°10' W 090°60'3 5.1
2018-May-07 07:30N 32°08' W 091°01'2 4.8
2018-May-07 07:00N 32°08' W 091°04'  
Track history (hours):
 
Tides and Currents Weather Stations Pressure Air Temp Water Temp Dewpoint Dewpoint Depression Visibility Wind Speed Wind Dir Waves Ship Positions

River Addyson

Owner: Western Rivers Boat Management, INC., Paducah, KY. More information available from US FCC via Universal Licensing System and Coast Guard Vessel Documentation Center.

Last reported at 2018-May-17 06:34 UTC. Time now 2018-May-24 14:05 UTC.
Position N 32°37' W 091°09'.

Length 61 m; draft 3 m.

Type: Towing. MMSI: 367610510.

Date/timePositionNaut miles runAvg speedWind from/ knotsBaromVisibWave heightAir tempDewpointWater temp
2018-May-17 06:34N 32°37' W 091°09'0 5.0
2018-May-17 06:30N 32°37' W 091°09'2 4.2
2018-May-17 06:00N 32°35' W 091°08'2 5.0
2018-May-17 05:31N 32°33' W 091°06'3 4.9
2018-May-17 05:00N 32°31' W 091°07'3 5.3
2018-May-17 04:30N 32°28' W 091°06'3 5.2
2018-May-17 04:01N 32°27' W 091°04'3 5.2
2018-May-17 03:30N 32°26' W 091°01'2 4.6
2018-May-17 03:00N 32°24' W 090°60'2 5.0
2018-May-17 02:30N 32°21' W 090°60'3 5.2
2018-May-17 02:00N 32°21' W 090°57'2 4.9
2018-May-17 01:30N 32°20' W 090°54'2 3.9
2018-May-17 01:00N 32°18' W 090°55'0 0.4
2018-May-17 00:30N 32°18' W 090°55'0 0.1
2018-May-17 00:00N 32°18' W 090°56'0 0.0
2018-May-16 23:28N 32°18' W 090°56'0 0.0
2018-May-16 23:00N 32°18' W 090°56'0 0.0
2018-May-16 22:30N 32°18' W 090°56'0 0.0
2018-May-16 22:00N 32°18' W 090°56'0 0.0
2018-May-16 21:30N 32°18' W 090°56'0 0.0
2018-May-16 21:00N 32°18' W 090°56'0 0.0
2018-May-16 20:31N 32°18' W 090°56'1 2.8
2018-May-16 20:01N 32°17' W 090°57'2 4.6
2018-May-16 19:30N 32°15' W 090°58'3 5.3
2018-May-16 19:00N 32°13' W 090°59'2 4.9
2018-May-16 18:30N 32°10' W 090°60'2 4.7
2018-May-16 18:00N 32°08' W 091°00'2 4.2
2018-May-16 17:30N 32°07' W 091°03'3 5.4
2018-May-16 16:57N 32°08' W 091°06'5 4.9
2018-May-16 16:00N 32°04' W 091°04'2 4.8
2018-May-16 15:30N 32°01' W 091°04'2 0.8
2018-May-16 13:06N 31°60' W 091°05'0 0.0
2018-May-16 13:00N 31°60' W 091°05'0 0.0
2018-May-16 12:29N 31°60' W 091°05'0 0.5
2018-May-16 12:00N 31°60' W 091°05'3 4.8
2018-May-16 11:28N 31°59' W 091°08'2 4.7
2018-May-16 10:59N 31°58' W 091°11'8 4.8
2018-May-16 09:19N 31°52' W 091°16'2 5.5
2018-May-16 09:00N 31°52' W 091°19'2 4.6
2018-May-16 08:31N 31°50' W 091°21'4 5.3
2018-May-16 07:45N 31°46' W 091°21'102 2.4
2018-May-14 13:06N 30°06' W 090°58'0 1.4
2018-May-14 13:00N 30°07' W 090°58'0 0.2
2018-May-14 12:12N 30°07' W 090°58'0 0.0
2018-May-14 12:01N 30°07' W 090°58'0 0.0
2018-May-14 11:24N 30°07' W 090°58'0 0.0
2018-May-14 11:00N 30°07' W 090°58'0 0.0
2018-May-14 10:27N 30°07' W 090°58'0 0.0
2018-May-14 10:00N 30°07' W 090°58'0 0.0
2018-May-14 09:00N 30°07' W 090°58'0 0.2
2018-May-14 08:08N 30°07' W 090°58'0 0.5
2018-May-14 08:00N 30°07' W 090°58'0 0.2
2018-May-14 07:29N 30°07' W 090°58'  
2018-May-10 03:05N 30°25' W 091°12'37 2.5
2018-May-09 12:40N 30°55' W 091°36'2 8.2
2018-May-09 12:23N 30°56' W 091°39'3 7.9
2018-May-09 12:00N 30°59' W 091°40'51 6.7
2018-May-09 04:21N 31°47' W 091°22'3 8.6
2018-May-09 04:01N 31°50' W 091°21'10 7.5
2018-May-09 02:43N 31°56' W 091°12'2 8.9
2018-May-09 02:29N 31°58' W 091°11'4 8.3
2018-May-09 01:59N 31°59' W 091°06'4 8.6
2018-May-09 01:30N 32°03' W 091°04'4 7.6
2018-May-09 01:00N 32°06' W 091°06'3 5.9
2018-May-09 00:30N 32°07' W 091°03'4 7.4
2018-May-09 00:01N 32°10' W 090°60'4 8.6
2018-May-08 23:30N 32°14' W 090°59'4 8.1
2018-May-08 23:00N 32°18' W 090°56'1 1.9
2018-May-08 22:30N 32°18' W 090°55'0 0.0
2018-May-08 22:00N 32°18' W 090°55'0 0.0
2018-May-08 21:30N 32°18' W 090°55'0 0.3
2018-May-08 21:00N 32°18' W 090°55'3 5.3
2018-May-08 20:30N 32°21' W 090°56'4 7.9
2018-May-08 20:00N 32°22' W 091°00'4 7.4
2018-May-08 19:30N 32°25' W 091°01'4 8.7
2018-May-08 19:00N 32°27' W 091°05'4 8.1
2018-May-08 18:30N 32°31' W 091°06'4 7.7
2018-May-08 17:59N 32°35' W 091°08'5 7.2
2018-May-08 17:22N 32°40' W 091°08'6 0.2
2018-May-07 16:21N 32°44' W 091°05'7 4.3
2018-May-07 14:39N 32°38' W 091°08'1 5.7
2018-May-07 14:30N 32°37' W 091°09'3 5.8
2018-May-07 14:00N 32°35' W 091°07'3 5.6
2018-May-07 13:30N 32°32' W 091°07'3 5.5
2018-May-07 13:00N 32°29' W 091°07'3 5.4
2018-May-07 12:30N 32°27' W 091°04'3 6.1
2018-May-07 12:00N 32°26' W 091°01'3 5.2
2018-May-07 11:30N 32°24' W 090°60'2 4.6
2018-May-07 11:00N 32°21' W 090°59'3 5.4
2018-May-07 10:31N 32°20' W 090°57'2 4.4
2018-May-07 10:00N 32°19' W 090°54'3 5.4
2018-May-07 09:30N 32°17' W 090°57'2 5.0
2018-May-07 09:00N 32°15' W 090°58'3 5.8
2018-May-07 08:30N 32°12' W 090°59'2 4.6
2018-May-07 08:00N 32°10' W 090°60'3 5.1
2018-May-07 07:30N 32°08' W 091°01'2 4.8
2018-May-07 07:00N 32°08' W 091°04'  

Dump ship's entire track history